Time;durP1;ratioP1;P1;durP2;ratioP2;P2;SDS_P1;SDS_P2;PMS_P1;PMS_P2;Temp;Humidity;BMP_temperature;BMP_pressure;BME280_temperature;BME280_humidity;BME280_pressure;Samples;Min_cycle;Max_cycle;Signal;HPM_P1;HPM_P2
2021/12/07 00:01:02;;;;;;;13.80;9.43;;;;;;;;;;5001897;28;20398;-66
2021/12/07 00:03:28;;;;;;;12.37;8.83;;;;;;;;;;4996750;28;20270;-67
2021/12/07 00:05:53;;;;;;;13.23;9.50;;;;;;;;;;4996220;28;20236;-68
2021/12/07 00:08:18;;;;;;;12.33;9.07;;;;;;;;;;4996172;28;20222;-67
2021/12/07 00:10:43;;;;;;;11.43;8.27;;;;;;;;;;4991170;28;20228;-68
2021/12/07 00:13:10;;;;;;;12.77;8.27;;;;;;;;;;4984793;28;20304;-67
2021/12/07 00:15:36;;;;;;;11.23;8.03;;;;;;;;;;4985724;28;20847;-68
2021/12/07 00:18:02;;;;;;;10.63;7.57;;;;;;;;;;5002872;28;20667;-68
2021/12/07 00:20:27;;;;;;;10.40;7.50;;;;;;;;;;5003901;28;20220;-68
2021/12/07 00:22:53;;;;;;;11.70;8.27;;;;;;;;;;4986841;28;20295;-68
2021/12/07 00:25:19;;;;;;;11.13;7.87;;;;;;;;;;4978566;28;20213;-68
2021/12/07 00:27:44;;;;;;;11.00;7.60;;;;;;;;;;4977679;28;20248;-68
2021/12/07 00:30:10;;;;;;;11.10;8.00;;;;;;;;;;4975627;28;20344;-68
2021/12/07 00:32:40;;;;;;;10.10;7.43;;;;;;;;;;5003051;28;21663;-69
2021/12/07 00:37:43;;;;;;;8.60;6.40;;;;;;;;;;5003515;28;20211;-69
2021/12/07 00:40:09;;;;;;;9.73;7.20;;;;;;;;;;5004195;28;20213;-69
2021/12/07 00:42:34;;;;;;;9.47;6.67;;;;;;;;;;5004166;28;20217;-70
2021/12/07 00:45:00;;;;;;;10.20;7.63;;;;;;;;;;5002696;28;20307;-70
2021/12/07 00:47:25;;;;;;;9.83;7.07;;;;;;;;;;4998653;28;20232;-69
2021/12/07 00:49:51;;;;;;;10.33;6.87;;;;;;;;;;5012257;28;20243;-70
2021/12/07 00:52:16;;;;;;;11.00;7.57;;;;;;;;;;5014394;28;20694;-69
2021/12/07 00:54:41;;;;;;;9.73;7.33;;;;;;;;;;5021104;28;20572;-69
2021/12/07 00:57:07;;;;;;;22.13;8.37;;;;;;;;;;5005987;28;20302;-69
2021/12/07 00:59:32;;;;;;;9.43;6.57;;;;;;;;;;5005255;28;20224;-69
2021/12/07 01:01:58;;;;;;;9.53;6.80;;;;;;;;;;5006554;28;20307;-69
2021/12/07 01:04:24;;;;;;;8.13;6.27;;;;;;;;;;5023453;28;20215;-69
2021/12/07 01:25:28;;;;;;;9.47;7.00;;;;;;;;;;5025344;28;20211;-69
2021/12/07 01:27:57;;;;;;;10.43;7.70;;;;;;;;;;5007096;28;20557;-70
2021/12/07 01:30:37;;;;;;;11.33;8.33;;;;;;;;;;5026309;28;20580;-69
2021/12/07 01:33:22;;;;;;;11.40;8.73;;;;;;;;;;5003489;28;20725;-69
2021/12/07 01:36:06;;;;;;;10.03;7.43;;;;;;;;;;5018924;28;20212;-70
2021/12/07 01:39:32;;;;;;;10.43;7.90;;;;;;;;;;5005153;28;20291;-69
2021/12/07 01:42:43;;;;;;;9.80;7.40;;;;;;;;;;5011220;28;20226;-70
2021/12/07 01:44:27;;;;;;;10.27;7.80;;;;;;;;;;5025732;28;20215;-69
2021/12/07 01:50:08;;;;;;;9.70;7.40;;;;;;;;;;5025466;28;20262;-69
2021/12/07 01:58:07;;;;;;;9.90;7.70;;;;;;;;;;5017636;28;20484;-70
2021/12/07 02:00:34;;;;;;;10.47;7.93;;;;;;;;;;5003850;28;20223;-69
2021/12/07 02:03:00;;;;;;;9.73;7.40;;;;;;;;;;5025963;28;20220;-70
2021/12/07 02:05:25;;;;;;;10.70;8.17;;;;;;;;;;5026004;28;20216;-69
2021/12/07 02:07:50;;;;;;;11.03;8.47;;;;;;;;;;5026457;28;20289;-70
2021/12/07 02:10:20;;;;;;;10.47;8.20;;;;;;;;;;5007388;28;20216;-70
2021/12/07 02:12:48;;;;;;;9.43;6.77;;;;;;;;;;5026431;28;20222;-70
2021/12/07 02:15:15;;;;;;;11.57;8.70;;;;;;;;;;5009525;28;20262;-70
2021/12/07 02:17:41;;;;;;;10.60;8.00;;;;;;;;;;5019108;28;20255;-70
2021/12/07 02:20:07;;;;;;;10.70;8.33;;;;;;;;;;5017391;28;20323;-69
2021/12/07 02:22:32;;;;;;;11.53;8.73;;;;;;;;;;5000944;28;20243;-70
2021/12/07 02:24:57;;;;;;;11.30;9.10;;;;;;;;;;5024090;28;20633;-70
2021/12/07 02:27:22;;;;;;;13.03;9.07;;;;;;;;;;5004109;28;20853;-70
2021/12/07 02:29:48;;;;;;;10.90;8.40;;;;;;;;;;5005623;28;20850;-70
2021/12/07 02:32:13;;;;;;;11.20;9.10;;;;;;;;;;5005257;28;20216;-69
2021/12/07 02:34:43;;;;;;;13.03;10.03;;;;;;;;;;5008145;28;20221;-69
2021/12/07 02:37:09;;;;;;;14.03;10.60;;;;;;;;;;5024678;28;20212;-69
2021/12/07 02:39:35;;;;;;;12.97;9.70;;;;;;;;;;5021499;28;21506;-69
2021/12/07 02:42:00;;;;;;;13.57;10.40;;;;;;;;;;4998970;28;20226;-68
2021/12/07 02:44:26;;;;;;;13.97;10.17;;;;;;;;;;5016907;28;20220;-69
2021/12/07 02:46:51;;;;;;;14.00;10.40;;;;;;;;;;5021824;28;20314;-69
2021/12/07 02:49:16;;;;;;;14.17;10.77;;;;;;;;;;5024926;28;20259;-68
2021/12/07 02:51:42;;;;;;;13.70;10.77;;;;;;;;;;5024726;28;20225;-68
2021/12/07 02:54:07;;;;;;;13.27;10.20;;;;;;;;;;5007544;28;20226;-67
2021/12/07 02:56:32;;;;;;;15.97;11.67;;;;;;;;;;5025208;28;20219;-68
2021/12/07 02:59:02;;;;;;;17.27;11.97;;;;;;;;;;5024986;28;20671;-69
2021/12/07 03:01:31;;;;;;;13.30;10.70;;;;;;;;;;5022443;28;20238;-68
2021/12/07 03:04:05;;;;;;;13.87;11.17;;;;;;;;;;5017508;28;20216;-68
2021/12/07 03:06:47;;;;;;;14.23;10.73;;;;;;;;;;5015661;28;20232;-68
2021/12/07 03:28:04;;;;;;;14.80;11.00;;;;;;;;;;4982714;28;20832;-64
2021/12/07 03:30:29;;;;;;;16.83;11.73;;;;;;;;;;4998588;28;21230;-63
2021/12/07 03:32:55;;;;;;;16.63;12.20;;;;;;;;;;5005712;28;20688;-64
2021/12/07 03:35:20;;;;;;;15.93;11.63;;;;;;;;;;5005704;28;20228;-64
2021/12/07 03:37:45;;;;;;;15.63;11.73;;;;;;;;;;5006754;28;20675;-64
2021/12/07 03:40:11;;;;;;;16.20;11.30;;;;;;;;;;5005289;28;20685;-64
2021/12/07 03:42:36;;;;;;;16.77;12.20;;;;;;;;;;5006404;28;20255;-64
2021/12/07 03:45:02;;;;;;;17.97;12.00;;;;;;;;;;5005029;28;20220;-63
2021/12/07 03:47:27;;;;;;;16.97;11.87;;;;;;;;;;4999971;28;20227;-64
2021/12/07 03:49:53;;;;;;;16.80;11.87;;;;;;;;;;4995322;28;20641;-64
2021/12/07 03:52:18;;;;;;;15.10;11.53;;;;;;;;;;4994932;28;20216;-64
2021/12/07 03:54:43;;;;;;;15.90;11.43;;;;;;;;;;5002767;28;20212;-64
2021/12/07 03:57:08;;;;;;;17.03;11.43;;;;;;;;;;5005300;28;20707;-63
2021/12/07 03:59:34;;;;;;;14.27;10.77;;;;;;;;;;5005051;28;20212;-64
2021/12/07 04:01:59;;;;;;;14.37;11.20;;;;;;;;;;5004418;28;21135;-63
2021/12/07 04:04:24;;;;;;;15.40;11.37;;;;;;;;;;5004735;28;20733;-63
2021/12/07 04:06:50;;;;;;;15.20;10.70;;;;;;;;;;5004982;28;20318;-63
2021/12/07 04:09:16;;;;;;;16.13;11.27;;;;;;;;;;4999046;28;20227;-63
2021/12/07 04:11:41;;;;;;;17.43;12.33;;;;;;;;;;4995034;28;20216;-63
2021/12/07 04:14:07;;;;;;;18.77;11.70;;;;;;;;;;4989174;28;20247;-63
2021/12/07 04:16:32;;;;;;;16.23;12.50;;;;;;;;;;4980501;28;20591;-63
2021/12/07 04:18:57;;;;;;;19.17;12.27;;;;;;;;;;4985446;28;20225;-63
2021/12/07 04:21:22;;;;;;;19.53;13.10;;;;;;;;;;4985215;28;20708;-63
2021/12/07 04:23:48;;;;;;;16.77;11.53;;;;;;;;;;4984984;28;20233;-63
2021/12/07 04:26:13;;;;;;;20.23;12.93;;;;;;;;;;4998789;28;20318;-63
2021/12/07 04:28:39;;;;;;;16.63;11.93;;;;;;;;;;4985611;28;20227;-63
2021/12/07 04:31:04;;;;;;;18.97;12.30;;;;;;;;;;5000405;28;20647;-63
2021/12/07 04:33:29;;;;;;;16.00;11.77;;;;;;;;;;4997066;28;20220;-63
2021/12/07 04:35:55;;;;;;;17.70;12.43;;;;;;;;;;4996450;28;20247;-63
2021/12/07 04:38:20;;;;;;;21.50;12.97;;;;;;;;;;4995088;28;20703;-62
2021/12/07 04:40:45;;;;;;;18.67;12.97;;;;;;;;;;5003680;28;20224;-62
2021/12/07 04:43:11;;;;;;;19.53;11.73;;;;;;;;;;5003363;28;20239;-62
2021/12/07 04:45:51;;;;;;;19.53;12.23;;;;;;;;;;5003527;28;20217;-62
2021/12/07 04:58:36;;;;;;;18.93;13.03;;;;;;;;;;5018538;28;20210;-62
2021/12/07 05:01:08;;;;;;;18.70;12.10;;;;;;;;;;5021102;28;20216;-62
2021/12/07 05:03:33;;;;;;;18.53;12.50;;;;;;;;;;5027782;28;20270;-61
2021/12/07 05:05:59;;;;;;;20.27;11.93;;;;;;;;;;5027430;28;20227;-62
2021/12/07 05:08:40;;;;;;;17.73;11.03;;;;;;;;;;5027171;28;20262;-62
2021/12/07 05:13:51;;;;;;;14.33;10.13;;;;;;;;;;5007951;28;20185;-62
2021/12/07 05:16:33;;;;;;;16.37;10.83;;;;;;;;;;5026212;28;20176;-62
2021/12/07 05:24:13;;;;;;;18.23;10.13;;;;;;;;;;5003670;28;20226;-61
2021/12/07 05:37:54;;;;;;;13.77;7.87;;;;;;;;;;5027118;28;20298;-61
2021/12/07 05:40:19;;;;;;;18.03;7.83;;;;;;;;;;4987048;28;20215;-61
2021/12/07 05:42:45;;;;;;;16.43;7.30;;;;;;;;;;5018526;28;20709;-61
2021/12/07 05:45:14;;;;;;;13.67;7.37;;;;;;;;;;5000302;28;20668;-61
2021/12/07 05:47:39;;;;;;;16.83;7.40;;;;;;;;;;5025725;28;20283;-61
2021/12/07 05:50:05;;;;;;;14.87;6.63;;;;;;;;;;5026048;28;20314;-61
2021/12/07 05:52:30;;;;;;;12.53;6.03;;;;;;;;;;5025316;28;20703;-61
2021/12/07 05:54:56;;;;;;;14.63;7.33;;;;;;;;;;5006192;28;20212;-61
2021/12/07 05:57:21;;;;;;;15.50;6.80;;;;;;;;;;5007947;28;20779;-61
2021/12/07 05:59:46;;;;;;;13.07;6.30;;;;;;;;;;5008322;28;20204;-61
2021/12/07 06:02:12;;;;;;;14.90;6.47;;;;;;;;;;5001849;28;20204;-61
2021/12/07 06:04:37;;;;;;;12.47;5.80;;;;;;;;;;5004090;28;20224;-61
2021/12/07 06:07:03;;;;;;;13.67;5.83;;;;;;;;;;5013828;28;20243;-61
2021/12/07 06:09:29;;;;;;;13.65;6.15;;;;;;;;;;5013689;28;20423;-60
2021/12/07 06:11:54;;;;;;;15.43;5.83;;;;;;;;;;4997388;28;20668;-60
2021/12/07 06:14:21;;;;;;;10.43;5.00;;;;;;;;;;5005766;28;20200;-60
2021/12/07 06:16:46;;;;;;;13.10;5.23;;;;;;;;;;5015205;28;20208;-59
2021/12/07 06:19:12;;;;;;;13.40;6.22;;;;;;;;;;5015221;28;20480;-60
2021/12/07 06:21:37;;;;;;;13.03;5.67;;;;;;;;;;5008199;28;20254;-59
2021/12/07 06:24:02;;;;;;;13.50;5.60;;;;;;;;;;5014138;28;20250;-60
2021/12/07 06:26:27;;;;;;;15.13;6.23;;;;;;;;;;5015823;28;20271;-59
2021/12/07 06:28:53;;;;;;;18.37;6.43;;;;;;;;;;5015682;28;20215;-59
2021/12/07 06:31:18;;;;;;;15.27;5.77;;;;;;;;;;5033375;28;20208;-59
2021/12/07 06:33:43;;;;;;;17.77;6.37;;;;;;;;;;5032701;28;20242;-60
2021/12/07 06:36:09;;;;;;;20.27;6.60;;;;;;;;;;5032489;28;20218;-60
2021/12/07 06:38:34;;;;;;;19.97;6.77;;;;;;;;;;5013902;28;20212;-59
2021/12/07 06:41:00;;;;;;;15.87;6.37;;;;;;;;;;5030025;28;20212;-59
2021/12/07 06:43:26;;;;;;;13.03;6.13;;;;;;;;;;5015054;28;20675;-59
2021/12/07 06:45:51;;;;;;;25.03;7.10;;;;;;;;;;5033782;28;20253;-60
2021/12/07 06:48:16;;;;;;;16.90;6.33;;;;;;;;;;5032422;28;20685;-60
2021/12/07 06:50:42;;;;;;;18.77;6.60;;;;;;;;;;5032563;28;20236;-60
2021/12/07 06:53:07;;;;;;;24.37;7.77;;;;;;;;;;5033234;28;20219;-60
2021/12/07 06:55:32;;;;;;;19.07;7.30;;;;;;;;;;5033425;28;20265;-59
2021/12/07 06:57:58;;;;;;;18.43;7.00;;;;;;;;;;5032840;28;20219;-59
2021/12/07 07:00:23;;;;;;;16.27;6.27;;;;;;;;;;5032885;28;20224;-60
2021/12/07 07:02:48;;;;;;;16.43;6.50;;;;;;;;;;5015811;28;20214;-60
2021/12/07 07:05:14;;;;;;;17.00;5.97;;;;;;;;;;5025093;28;20219;-59
2021/12/07 07:07:39;;;;;;;19.30;7.13;;;;;;;;;;5025460;28;20236;-60
2021/12/07 07:10:05;;;;;;;16.50;6.17;;;;;;;;;;5028525;28;20555;-59
2021/12/07 07:12:30;;;;;;;14.50;5.33;;;;;;;;;;5027340;28;20209;-60
2021/12/07 07:14:55;;;;;;;12.27;5.40;;;;;;;;;;5027418;28;20581;-60
2021/12/07 07:17:21;;;;;;;14.87;5.70;;;;;;;;;;5028941;28;20231;-60
2021/12/07 07:19:46;;;;;;;17.17;5.90;;;;;;;;;;5032309;28;20207;-59
2021/12/07 07:22:11;;;;;;;15.57;5.90;;;;;;;;;;5020373;28;20303;-59
2021/12/07 07:24:37;;;;;;;13.33;5.40;;;;;;;;;;5013288;28;20216;-59
2021/12/07 07:27:02;;;;;;;16.03;5.90;;;;;;;;;;5011796;28;20255;-59
2021/12/07 07:29:27;;;;;;;10.47;5.17;;;;;;;;;;5013093;28;20300;-59
2021/12/07 07:31:52;;;;;;;13.43;4.93;;;;;;;;;;5029038;28;20220;-59
2021/12/07 07:34:18;;;;;;;18.17;5.90;;;;;;;;;;5032164;28;20606;-60
2021/12/07 07:36:43;;;;;;;14.67;5.90;;;;;;;;;;5032059;28;20306;-60
2021/12/07 07:39:09;;;;;;;15.90;6.50;;;;;;;;;;5030907;28;20277;-60
2021/12/07 07:41:34;;;;;;;15.43;6.27;;;;;;;;;;5008933;28;20223;-61
2021/12/07 07:43:59;;;;;;;14.60;6.43;;;;;;;;;;5018781;28;20559;-61
2021/12/07 07:46:25;;;;;;;19.97;6.33;;;;;;;;;;5029924;28;20232;-60
2021/12/07 07:48:50;;;;;;;12.83;5.40;;;;;;;;;;5031544;28;20258;-59
2021/12/07 07:51:15;;;;;;;13.63;5.60;;;;;;;;;;5031498;28;20671;-60
2021/12/07 07:53:41;;;;;;;16.70;5.50;;;;;;;;;;5031641;28;20207;-60
2021/12/07 07:56:06;;;;;;;13.87;6.10;;;;;;;;;;5031850;28;20211;-60
2021/12/07 07:58:31;;;;;;;21.10;6.37;;;;;;;;;;5032256;28;20239;-59
2021/12/07 08:00:57;;;;;;;13.87;5.87;;;;;;;;;;5031624;28;20215;-59
2021/12/07 08:03:22;;;;;;;13.80;5.87;;;;;;;;;;5031671;28;20207;-59
2021/12/07 08:05:47;;;;;;;16.60;5.90;;;;;;;;;;5032297;28;20220;-60
2021/12/07 08:08:13;;;;;;;12.77;6.20;;;;;;;;;;5013274;28;20238;-59
2021/12/07 08:10:38;;;;;;;20.67;6.43;;;;;;;;;;5032223;28;20238;-59
2021/12/07 08:13:04;;;;;;;22.67;6.63;;;;;;;;;;5031739;28;20204;-60
2021/12/07 08:15:30;;;;;;;17.00;5.77;;;;;;;;;;5012883;28;20204;-60
2021/12/07 08:17:55;;;;;;;14.87;5.90;;;;;;;;;;5012451;28;20234;-59
2021/12/07 08:20:21;;;;;;;17.50;6.53;;;;;;;;;;5031734;28;20648;-59
2021/12/07 08:22:46;;;;;;;14.10;4.97;;;;;;;;;;4997026;28;20205;-59
2021/12/07 08:25:12;;;;;;;14.87;5.80;;;;;;;;;;5012071;28;20582;-60
2021/12/07 08:27:37;;;;;;;13.27;5.10;;;;;;;;;;5012226;28;20280;-60
2021/12/07 08:30:03;;;;;;;19.63;6.53;;;;;;;;;;4995259;28;20684;-60
2021/12/07 08:32:29;;;;;;;20.47;6.37;;;;;;;;;;5016450;28;20212;-60
2021/12/07 08:34:54;;;;;;;13.93;6.10;;;;;;;;;;4982538;28;20220;-59
2021/12/07 08:37:19;;;;;;;17.37;6.10;;;;;;;;;;5014753;28;20292;-59
2021/12/07 08:39:45;;;;;;;20.57;6.07;;;;;;;;;;5015197;28;20250;-60
2021/12/07 08:42:10;;;;;;;13.87;5.53;;;;;;;;;;5015098;28;20235;-60
2021/12/07 08:44:35;;;;;;;15.27;5.70;;;;;;;;;;4998804;28;20618;-59
2021/12/07 08:47:01;;;;;;;13.93;4.80;;;;;;;;;;5015655;28;20228;-60
2021/12/07 08:49:26;;;;;;;19.53;5.50;;;;;;;;;;4997289;28;20256;-59
2021/12/07 08:51:51;;;;;;;15.17;5.03;;;;;;;;;;5016324;28;20205;-60
2021/12/07 08:54:26;;;;;;;21.43;5.40;;;;;;;;;;5015262;28;20212;-60
2021/12/07 08:59:39;;;;;;;18.73;4.70;;;;;;;;;;5002719;28;20224;-59
2021/12/07 09:02:05;;;;;;;14.93;5.00;;;;;;;;;;4996108;28;20221;-59
2021/12/07 09:04:30;;;;;;;16.63;4.83;;;;;;;;;;4995397;28;20300;-59
2021/12/07 09:06:55;;;;;;;18.07;5.47;;;;;;;;;;4996240;28;20239;-59
2021/12/07 09:09:21;;;;;;;16.57;4.30;;;;;;;;;;4995526;28;20219;-59
2021/12/07 09:11:46;;;;;;;16.30;4.70;;;;;;;;;;4995619;28;20221;-59
2021/12/07 09:14:14;;;;;;;18.00;4.87;;;;;;;;;;5003622;28;20209;-60
2021/12/07 09:16:39;;;;;;;18.90;5.17;;;;;;;;;;5003794;28;20220;-60
2021/12/07 09:19:05;;;;;;;18.23;5.17;;;;;;;;;;4994746;28;20584;-60
2021/12/07 09:21:30;;;;;;;18.00;4.33;;;;;;;;;;5002151;28;20679;-60
2021/12/07 09:23:55;;;;;;;17.57;4.70;;;;;;;;;;5014038;28;20220;-60
2021/12/07 09:26:21;;;;;;;15.20;4.80;;;;;;;;;;5014408;28;20254;-60
2021/12/07 09:28:46;;;;;;;15.83;4.63;;;;;;;;;;5015319;28;20220;-60
2021/12/07 09:31:11;;;;;;;12.47;4.90;;;;;;;;;;5015240;28;20234;-61
2021/12/07 09:33:37;;;;;;;15.80;5.00;;;;;;;;;;5013641;28;20221;-61
2021/12/07 09:36:05;;;;;;;17.27;5.43;;;;;;;;;;5014839;28;20225;-61
2021/12/07 09:38:30;;;;;;;19.00;4.77;;;;;;;;;;5014414;28;20221;-61
2021/12/07 09:40:55;;;;;;;16.40;5.00;;;;;;;;;;5015014;28;20548;-61
2021/12/07 09:43:21;;;;;;;21.50;5.63;;;;;;;;;;5014955;28;20559;-62
2021/12/07 09:45:46;;;;;;;16.87;5.30;;;;;;;;;;5014380;28;20216;-62
2021/12/07 09:48:11;;;;;;;19.73;5.77;;;;;;;;;;5014390;28;20267;-61
2021/12/07 09:50:37;;;;;;;16.33;4.97;;;;;;;;;;5014684;28;20220;-62
2021/12/07 09:53:03;;;;;;;20.70;5.95;;;;;;;;;;5029399;28;20213;-62
2021/12/07 09:55:29;;;;;;;17.60;5.73;;;;;;;;;;5014944;28;20645;-62
2021/12/07 09:57:54;;;;;;;18.47;5.77;;;;;;;;;;5014969;28;20216;-62
2021/12/07 10:00:21;;;;;;;18.17;5.40;;;;;;;;;;5013599;28;20574;-62
2021/12/07 10:02:46;;;;;;;17.00;5.70;;;;;;;;;;5014891;28;20208;-63
2021/12/07 10:05:12;;;;;;;17.30;4.88;;;;;;;;;;5014048;28;20275;-63
2021/12/07 10:07:37;;;;;;;18.70;5.57;;;;;;;;;;5012431;28;20719;-63
2021/12/07 10:10:03;;;;;;;22.17;5.93;;;;;;;;;;5012751;28;20220;-63
2021/12/07 10:12:29;;;;;;;16.43;4.77;;;;;;;;;;5014679;28;20699;-63
2021/12/07 10:14:54;;;;;;;16.73;5.35;;;;;;;;;;4998542;28;20233;-64
2021/12/07 10:17:20;;;;;;;19.13;4.97;;;;;;;;;;5007240;28;20223;-64
2021/12/07 10:19:45;;;;;;;18.23;5.17;;;;;;;;;;5014445;28;20212;-64
2021/12/07 10:22:15;;;;;;;16.60;5.27;;;;;;;;;;5001341;28;20213;-64
2021/12/07 10:24:46;;;;;;;14.13;5.47;;;;;;;;;;4993650;28;20213;-64
2021/12/07 10:27:12;;;;;;;20.77;6.17;;;;;;;;;;4994215;28;20229;-65
2021/12/07 10:29:38;;;;;;;17.50;4.87;;;;;;;;;;4992638;28;20698;-65
2021/12/07 10:32:05;;;;;;;15.52;4.80;;;;;;;;;;4993412;28;20210;-64
2021/12/07 10:34:33;;;;;;;17.07;5.40;;;;;;;;;;4994886;28;20303;-64
2021/12/07 10:37:06;;;;;;;17.05;4.85;;;;;;;;;;4993613;28;20221;-64
2021/12/07 10:39:34;;;;;;;22.30;4.83;;;;;;;;;;4994687;28;20276;-63
2021/12/07 10:42:00;;;;;;;18.48;5.63;;;;;;;;;;4993526;28;20316;-63
2021/12/07 10:44:26;;;;;;;12.43;4.82;;;;;;;;;;4994452;28;20251;-62
2021/12/07 10:46:52;;;;;;;21.08;5.10;;;;;;;;;;4994279;28;20700;-62
2021/12/07 10:49:26;;;;;;;15.70;5.00;;;;;;;;;;4993025;28;20241;-62
2021/12/07 10:51:57;;;;;;;18.73;4.70;;;;;;;;;;4992559;28;20225;-62
2021/12/07 10:54:22;;;;;;;14.65;4.43;;;;;;;;;;4994036;28;20201;-61
2021/12/07 10:56:48;;;;;;;12.40;4.68;;;;;;;;;;4993145;28;20264;-61
2021/12/07 10:59:13;;;;;;;16.58;4.68;;;;;;;;;;4993697;28;20209;-61
2021/12/07 11:01:41;;;;;;;16.27;4.70;;;;;;;;;;4992710;28;20217;-61
2021/12/07 11:04:24;;;;;;;15.05;4.00;;;;;;;;;;4993062;28;20297;-61
2021/12/07 11:07:03;;;;;;;16.60;4.82;;;;;;;;;;4993981;28;20264;-61
2021/12/07 11:09:28;;;;;;;15.38;4.65;;;;;;;;;;4993621;28;20212;-61
2021/12/07 11:12:10;;;;;;;15.90;4.00;;;;;;;;;;4991578;28;20213;-61
2021/12/07 11:14:48;;;;;;;17.33;4.68;;;;;;;;;;5004965;28;20299;-61
2021/12/07 11:17:14;;;;;;;18.90;5.65;;;;;;;;;;5002737;28;20219;-61
2021/12/07 11:19:39;;;;;;;17.50;4.75;;;;;;;;;;5023845;28;20570;-61
2021/12/07 11:22:04;;;;;;;17.63;5.17;;;;;;;;;;5019246;28;20473;-61
2021/12/07 11:24:36;;;;;;;12.57;4.32;;;;;;;;;;5012202;28;20220;-61
2021/12/07 11:29:55;;;;;;;14.70;4.45;;;;;;;;;;5013082;28;20215;-62
2021/12/07 11:32:21;;;;;;;13.52;4.18;;;;;;;;;;5010651;28;20273;-61
2021/12/07 11:34:46;;;;;;;14.15;4.45;;;;;;;;;;5013169;28;20227;-61
2021/12/07 11:37:12;;;;;;;14.93;3.85;;;;;;;;;;5031749;28;20725;-61
2021/12/07 11:39:42;;;;;;;15.23;4.00;;;;;;;;;;5033169;28;20215;-61
2021/12/07 11:42:09;;;;;;;11.25;4.00;;;;;;;;;;5018882;28;20208;-61
2021/12/07 11:44:35;;;;;;;12.75;3.67;;;;;;;;;;5027844;28;20246;-61
2021/12/07 11:47:01;;;;;;;12.07;3.80;;;;;;;;;;5031353;28;20260;-62
2021/12/07 11:49:27;;;;;;;11.07;3.97;;;;;;;;;;5031800;28;20695;-61
2021/12/07 11:51:55;;;;;;;11.77;3.75;;;;;;;;;;5032119;28;20270;-61
2021/12/07 11:54:22;;;;;;;13.93;3.92;;;;;;;;;;5013808;28;20228;-61
2021/12/07 11:56:47;;;;;;;12.57;3.33;;;;;;;;;;5006533;28;20300;-61
2021/12/07 11:59:12;;;;;;;15.00;3.72;;;;;;;;;;5024367;28;20287;-61
2021/12/07 12:01:38;;;;;;;13.55;3.33;;;;;;;;;;5014833;28;20208;-61
2021/12/07 12:04:03;;;;;;;13.32;4.00;;;;;;;;;;5029325;28;20295;-61
2021/12/07 12:06:29;;;;;;;14.95;4.18;;;;;;;;;;4993828;28;20232;-61
2021/12/07 12:08:54;;;;;;;16.35;4.22;;;;;;;;;;5012244;28;20275;-61
2021/12/07 12:11:21;;;;;;;16.40;4.15;;;;;;;;;;5012430;28;22472;-61
2021/12/07 12:14:05;;;;;;;17.77;4.65;;;;;;;;;;4998659;28;20208;-61
2021/12/07 12:16:49;;;;;;;14.77;4.45;;;;;;;;;;5028387;28;20311;-61
2021/12/07 12:19:30;;;;;;;13.07;3.83;;;;;;;;;;5014096;28;20219;-61
2021/12/07 12:21:59;;;;;;;15.60;4.03;;;;;;;;;;5003598;28;20613;-61
2021/12/07 12:24:44;;;;;;;15.68;3.75;;;;;;;;;;4994490;28;20583;-61
2021/12/07 12:27:11;;;;;;;13.30;3.50;;;;;;;;;;4994822;28;20228;-61
2021/12/07 12:29:36;;;;;;;12.68;3.80;;;;;;;;;;5011527;28;20295;-61
2021/12/07 12:32:02;;;;;;;16.55;4.32;;;;;;;;;;5011922;28;20236;-62
2021/12/07 12:34:28;;;;;;;10.05;3.30;;;;;;;;;;4994340;28;20220;-61
2021/12/07 12:36:55;;;;;;;11.57;3.80;;;;;;;;;;5011937;28;20212;-61
2021/12/07 12:39:22;;;;;;;10.52;3.47;;;;;;;;;;5011416;28;20240;-61
2021/12/07 12:41:58;;;;;;;12.55;4.15;;;;;;;;;;4994097;28;20703;-61
2021/12/07 12:44:25;;;;;;;14.82;3.95;;;;;;;;;;4994165;28;20208;-61
2021/12/07 12:46:53;;;;;;;12.95;4.25;;;;;;;;;;5012360;28;20236;-61
2021/12/07 12:49:18;;;;;;;15.10;3.75;;;;;;;;;;4989880;28;20720;-61
2021/12/07 12:51:44;;;;;;;11.20;3.80;;;;;;;;;;4992260;28;20685;-61
2021/12/07 12:54:10;;;;;;;13.88;4.30;;;;;;;;;;4990910;28;20666;-61
2021/12/07 12:56:36;;;;;;;13.80;3.83;;;;;;;;;;4991776;28;20217;-61
2021/12/07 12:59:03;;;;;;;11.88;3.38;;;;;;;;;;4991883;28;20304;-61
2021/12/07 13:01:29;;;;;;;11.98;3.60;;;;;;;;;;4992556;28;20564;-61
2021/12/07 13:03:58;;;;;;;10.38;3.10;;;;;;;;;;4990549;28;20217;-61
2021/12/07 13:06:24;;;;;;;12.07;3.20;;;;;;;;;;4992012;28;20249;-61
2021/12/07 13:08:55;;;;;;;13.45;3.47;;;;;;;;;;4992268;28;20225;-61
2021/12/07 13:11:36;;;;;;;14.57;3.47;;;;;;;;;;4991179;28;20221;-61
2021/12/07 13:14:01;;;;;;;12.25;3.25;;;;;;;;;;4997078;28;20223;-62
2021/12/07 13:16:27;;;;;;;15.52;2.95;;;;;;;;;;5009294;28;20216;-61
2021/12/07 13:18:59;;;;;;;12.50;3.38;;;;;;;;;;5013964;28;20620;-61
2021/12/07 13:21:26;;;;;;;9.98;3.10;;;;;;;;;;5009474;28;20224;-61
2021/12/07 13:23:57;;;;;;;13.45;4.07;;;;;;;;;;4995274;28;20348;-61
2021/12/07 13:26:24;;;;;;;16.20;3.60;;;;;;;;;;4995468;28;20312;-61
2021/12/07 13:29:00;;;;;;;12.70;3.75;;;;;;;;;;4994484;28;20224;-61
2021/12/07 13:31:25;;;;;;;13.05;3.60;;;;;;;;;;5013787;28;20246;-61
2021/12/07 13:33:52;;;;;;;10.50;3.25;;;;;;;;;;5014103;28;20668;-61
2021/12/07 13:36:27;;;;;;;14.95;3.50;;;;;;;;;;5014656;28;20258;-61
2021/12/07 13:38:52;;;;;;;14.90;3.40;;;;;;;;;;5014422;28;20274;-61
2021/12/07 13:41:18;;;;;;;12.68;3.55;;;;;;;;;;5013397;28;20633;-61
2021/12/07 13:43:44;;;;;;;11.43;3.47;;;;;;;;;;5015323;28;20300;-61
2021/12/07 13:46:10;;;;;;;12.27;3.92;;;;;;;;;;5012640;28;20252;-62
2021/12/07 13:48:36;;;;;;;10.33;3.30;;;;;;;;;;5012273;28;20232;-61
2021/12/07 13:51:01;;;;;;;10.87;3.17;;;;;;;;;;5012999;28;20221;-62
2021/12/07 13:53:26;;;;;;;11.30;3.47;;;;;;;;;;5012423;28;20303;-61
2021/12/07 13:55:52;;;;;;;13.25;3.22;;;;;;;;;;5013445;28;20577;-61
2021/12/07 13:58:17;;;;;;;11.15;3.28;;;;;;;;;;5020856;28;20274;-61
2021/12/07 14:00:42;;;;;;;13.00;4.03;;;;;;;;;;5016196;28;20551;-61
2021/12/07 14:03:08;;;;;;;12.87;3.67;;;;;;;;;;4998363;28;20224;-61
2021/12/07 14:05:35;;;;;;;11.57;3.57;;;;;;;;;;4987728;28;20402;-61
2021/12/07 14:08:01;;;;;;;12.67;4.20;;;;;;;;;;4978575;28;20268;-61
2021/12/07 14:10:29;;;;;;;13.07;3.63;;;;;;;;;;4982185;28;20260;-61
2021/12/07 14:12:55;;;;;;;12.20;3.50;;;;;;;;;;5002532;28;20205;-61
2021/12/07 14:15:21;;;;;;;12.13;3.67;;;;;;;;;;5001622;28;20337;-61
2021/12/07 14:17:48;;;;;;;12.20;3.30;;;;;;;;;;4987226;28;20221;-61
2021/12/07 14:20:13;;;;;;;10.87;3.10;;;;;;;;;;4996166;28;20229;-61
2021/12/07 14:22:43;;;;;;;15.40;3.67;;;;;;;;;;5002513;28;20278;-61
2021/12/07 14:25:09;;;;;;;10.60;3.33;;;;;;;;;;5004071;28;20213;-61
2021/12/07 14:27:34;;;;;;;10.53;3.03;;;;;;;;;;4996723;28;20224;-61
2021/12/07 14:30:00;;;;;;;13.10;3.10;;;;;;;;;;4996656;28;20224;-61
2021/12/07 14:32:25;;;;;;;16.20;3.83;;;;;;;;;;4999169;28;20243;-61
2021/12/07 14:34:50;;;;;;;13.40;3.50;;;;;;;;;;5005630;28;20552;-61
2021/12/07 14:37:16;;;;;;;12.03;3.60;;;;;;;;;;5004424;28;20204;-61
2021/12/07 14:39:41;;;;;;;12.68;4.05;;;;;;;;;;5006116;28;20212;-61
2021/12/07 14:42:09;;;;;;;10.43;3.20;;;;;;;;;;5004691;28;20220;-61
2021/12/07 14:44:35;;;;;;;15.17;3.80;;;;;;;;;;5006269;28;20212;-61
2021/12/07 14:47:05;;;;;;;13.37;3.30;;;;;;;;;;5006020;28;20224;-61
2021/12/07 14:49:32;;;;;;;9.60;3.50;;;;;;;;;;5009213;28;20228;-61
2021/12/07 14:51:57;;;;;;;10.90;3.53;;;;;;;;;;5017411;28;20211;-60
2021/12/07 14:54:23;;;;;;;15.63;3.73;;;;;;;;;;5015405;28;20232;-61
2021/12/07 14:56:48;;;;;;;13.10;3.45;;;;;;;;;;5024248;28;20212;-61
2021/12/07 14:59:14;;;;;;;11.17;3.60;;;;;;;;;;5023797;28;20235;-60
2021/12/07 15:01:41;;;;;;;11.25;3.25;;;;;;;;;;4988263;28;20589;-60
2021/12/07 15:04:08;;;;;;;14.63;3.93;;;;;;;;;;5006982;28;20251;-61
2021/12/07 15:06:33;;;;;;;13.83;3.50;;;;;;;;;;5004522;28;20237;-61
2021/12/07 15:08:59;;;;;;;10.93;3.13;;;;;;;;;;5005182;28;20232;-61
2021/12/07 15:11:25;;;;;;;12.47;3.23;;;;;;;;;;5008710;28;20310;-60
2021/12/07 15:13:50;;;;;;;10.60;3.53;;;;;;;;;;4996449;28;20303;-60
2021/12/07 15:16:15;;;;;;;15.87;3.30;;;;;;;;;;4995970;28;20208;-60
2021/12/07 15:18:42;;;;;;;13.50;3.57;;;;;;;;;;5001027;28;20262;-61
2021/12/07 15:21:11;;;;;;;10.60;3.30;;;;;;;;;;5004878;28;20205;-61
2021/12/07 15:23:43;;;;;;;15.63;3.10;;;;;;;;;;5022916;28;20655;-61
2021/12/07 15:26:08;;;;;;;11.20;3.10;;;;;;;;;;5024651;28;20669;-61
2021/12/07 15:28:33;;;;;;;12.20;2.70;;;;;;;;;;5024876;28;20683;-61
2021/12/07 15:30:58;;;;;;;10.77;2.72;;;;;;;;;;5023892;28;20215;-61
2021/12/07 15:33:24;;;;;;;13.97;3.40;;;;;;;;;;5003928;28;20251;-61
2021/12/07 15:35:49;;;;;;;10.07;2.60;;;;;;;;;;5016724;28;20226;-61
2021/12/07 15:38:15;;;;;;;9.50;2.50;;;;;;;;;;5002229;28;20548;-61
2021/12/07 15:40:41;;;;;;;13.50;2.57;;;;;;;;;;4999935;28;20208;-61
2021/12/07 15:43:06;;;;;;;12.00;2.47;;;;;;;;;;5005421;28;20766;-61
2021/12/07 15:45:32;;;;;;;11.00;2.70;;;;;;;;;;5004785;28;20251;-61
2021/12/07 15:47:57;;;;;;;13.73;2.93;;;;;;;;;;5005220;28;20242;-61
2021/12/07 15:50:23;;;;;;;10.67;2.40;;;;;;;;;;5003792;28;20271;-61